Time;durP1;ratioP1;P1;durP2;ratioP2;P2;SDS_P1;SDS_P2;PMS_P1;PMS_P2;Temp;Humidity;BMP_temperature;BMP_pressure;BME280_temperature;BME280_humidity;BME280_pressure;Samples;Min_cycle;Max_cycle;Signal;HPM_P1;HPM_P2
2022/10/19 00:02:23;;;;;;;10.70;2.25;;;;;;;14.67;63.13;102803.94;5109851;28;20060;-60
2022/10/19 00:04:51;;;;;;;10.23;2.05;;;;;;;14.66;63.35;102810.38;5109232;28;20055;-61
2022/10/19 00:07:18;;;;;;;9.88;2.10;;;;;;;14.64;63.21;102797.03;5107843;28;20044;-61
2022/10/19 00:09:48;;;;;;;10.07;2.50;;;;;;;14.64;63.17;102804.31;5106372;28;21388;-60
2022/10/19 00:12:16;;;;;;;14.30;2.53;;;;;;;14.63;62.99;102792.66;5107285;28;20062;-61
2022/10/19 00:14:45;;;;;;;11.93;2.15;;;;;;;14.63;62.93;102800.78;5114487;28;20051;-61
2022/10/19 00:17:12;;;;;;;6.07;2.40;;;;;;;14.62;62.87;102798.28;5113195;28;20052;-60
2022/10/19 00:19:40;;;;;;;10.55;2.40;;;;;;;14.58;62.83;102795.16;5110216;28;20052;-60
2022/10/19 00:22:08;;;;;;;9.23;1.92;;;;;;;14.60;63.06;102795.78;5107370;28;20063;-61
2022/10/19 00:24:40;;;;;;;17.33;2.53;;;;;;;14.60;63.07;102794.94;5118655;28;20537;-62
2022/10/19 00:27:09;;;;;;;14.85;3.10;;;;;;;14.59;63.13;102782.44;5110115;28;20059;-60
2022/10/19 00:29:38;;;;;;;9.40;1.90;;;;;;;14.58;63.28;102787.03;5116651;28;20051;-60
2022/10/19 00:32:06;;;;;;;8.38;2.53;;;;;;;14.58;63.20;102788.91;5114650;28;20044;-60
2022/10/19 00:34:33;;;;;;;11.93;2.60;;;;;;;14.56;62.91;102786.41;5105622;28;20048;-61
2022/10/19 00:37:01;;;;;;;7.38;2.20;;;;;;;14.55;62.84;102782.00;5106795;28;20482;-61
2022/10/19 00:39:29;;;;;;;7.78;2.15;;;;;;;14.55;62.63;102776.59;5107547;28;20070;-61
2022/10/19 00:41:56;;;;;;;11.35;2.22;;;;;;;14.54;62.71;102782.22;5113421;28;20475;-62
2022/10/19 00:45:01;;;;;;;7.55;1.42;;;;;;;14.44;62.74;102779.03;5106170;28;20048;-61
2022/10/19 00:47:30;;;;;;;7.03;2.38;;;;;;;14.51;62.69;102788.88;5112276;28;20115;-61
2022/10/19 00:49:59;;;;;;;10.93;2.30;;;;;;;14.51;62.86;102790.72;5105612;28;20054;-61
2022/10/19 00:52:28;;;;;;;8.52;2.22;;;;;;;14.50;62.86;102791.78;5109672;28;20047;-61
2022/10/19 00:54:58;;;;;;;12.02;2.55;;;;;;;14.48;62.95;102799.25;5105438;28;20047;-61
2022/10/19 00:57:29;;;;;;;13.75;2.75;;;;;;;14.47;62.84;102797.59;5113480;28;20043;-61
2022/10/19 00:59:58;;;;;;;7.75;1.92;;;;;;;14.47;62.88;102794.88;5110765;28;20043;-61
2022/10/19 01:02:27;;;;;;;8.10;2.47;;;;;;;14.45;62.79;102791.53;5109019;28;20050;-61
2022/10/19 01:04:56;;;;;;;9.70;2.42;;;;;;;14.43;62.77;102780.91;5112413;28;20044;-61
2022/10/19 01:07:25;;;;;;;8.77;2.17;;;;;;;14.41;62.65;102795.63;5113933;28;20048;-61
2022/10/19 01:09:53;;;;;;;9.43;2.00;;;;;;;14.40;62.96;102786.69;5115484;28;20043;-61
2022/10/19 01:12:47;;;;;;;8.93;2.50;;;;;;;14.39;62.74;102787.72;5111188;28;20052;-61
2022/10/19 01:15:27;;;;;;;6.95;1.90;;;;;;;14.34;62.84;102779.38;5118985;28;20047;-61
2022/10/19 01:18:04;;;;;;;6.07;2.30;;;;;;;14.33;63.01;102778.53;5106480;28;20040;-60
2022/10/19 01:21:14;;;;;;;6.68;1.80;;;;;;;14.33;62.77;102780.41;5104982;28;20050;-61
2022/10/19 01:24:09;;;;;;;12.45;2.90;;;;;;;14.32;62.73;102790.38;5117419;28;20047;-61
2022/10/19 01:27:05;;;;;;;10.38;2.75;;;;;;;14.30;62.67;102784.34;5109987;28;20054;-60
2022/10/19 01:29:53;;;;;;;6.60;2.10;;;;;;;14.28;62.91;102781.00;5124195;28;20044;-61
2022/10/19 01:32:26;;;;;;;10.40;2.53;;;;;;;14.28;62.86;102778.31;5111608;28;20051;-61
2022/10/19 01:35:05;;;;;;;10.68;2.83;;;;;;;14.26;62.74;102777.66;5106759;28;20097;-60
2022/10/19 01:37:40;;;;;;;8.73;3.03;;;;;;;14.24;62.73;102777.03;5117273;28;20050;-61
2022/10/19 01:40:14;;;;;;;10.48;2.30;;;;;;;14.23;62.49;102772.66;5108047;28;20050;-61
2022/10/19 01:42:46;;;;;;;8.68;2.20;;;;;;;14.22;62.81;102775.56;5121060;28;20044;-60
2022/10/19 01:45:19;;;;;;;9.77;2.67;;;;;;;14.20;62.73;102773.06;5110572;28;20051;-61
2022/10/19 01:47:53;;;;;;;5.50;2.38;;;;;;;14.19;62.43;102773.25;5108635;28;20048;-61
2022/10/19 01:50:27;;;;;;;10.40;2.25;;;;;;;14.17;62.76;102770.75;5104028;28;20051;-60
2022/10/19 01:52:55;;;;;;;7.07;2.00;;;;;;;14.16;62.25;102770.94;5106722;28;20036;-61
2022/10/19 01:55:25;;;;;;;8.63;1.92;;;;;;;14.14;62.20;102773.00;5107555;28;20127;-61
2022/10/19 01:58:01;;;;;;;5.47;2.00;;;;;;;14.12;61.90;102765.09;5109559;28;20051;-61
2022/10/19 02:00:34;;;;;;;5.90;2.10;;;;;;;14.13;62.22;102761.34;5112785;28;20052;-61
2022/10/19 02:03:05;;;;;;;11.00;2.67;;;;;;;14.11;62.16;102758.03;5109007;28;20056;-61
2022/10/19 02:05:35;;;;;;;8.88;2.53;;;;;;;14.08;62.18;102753.00;5106603;28;20044;-60
2022/10/19 02:08:06;;;;;;;9.45;2.47;;;;;;;14.09;62.63;102754.69;5114263;28;20046;-61
2022/10/19 02:10:37;;;;;;;6.32;2.28;;;;;;;14.08;62.42;102755.72;5104780;28;20040;-61
2022/10/19 02:13:07;;;;;;;8.43;2.40;;;;;;;14.07;61.92;102747.81;5104991;28;20114;-61
2022/10/19 02:15:40;;;;;;;7.07;2.28;;;;;;;14.05;62.36;102737.19;5120229;28;20039;-61
2022/10/19 02:18:10;;;;;;;9.38;2.05;;;;;;;14.05;62.72;102742.59;5105983;28;20059;-61
2022/10/19 02:20:38;;;;;;;6.68;2.25;;;;;;;14.05;62.40;102744.47;5113637;28;20040;-61
2022/10/19 02:23:06;;;;;;;8.70;1.92;;;;;;;14.05;62.41;102739.06;5107758;28;20058;-61
2022/10/19 02:25:35;;;;;;;11.38;2.88;;;;;;;14.04;61.98;102734.69;5118279;28;20054;-61
2022/10/19 02:28:04;;;;;;;8.77;2.30;;;;;;;14.04;62.07;102737.38;5104794;28;20497;-61
2022/10/19 02:30:32;;;;;;;10.98;2.88;;;;;;;14.02;62.07;102730.31;5114981;28;20040;-61
2022/10/19 02:33:01;;;;;;;16.23;2.63;;;;;;;14.01;62.40;102734.03;5116184;28;20044;-61
2022/10/19 02:35:29;;;;;;;8.45;2.53;;;;;;;13.99;62.05;102722.59;5112555;28;20047;-62
2022/10/19 02:38:01;;;;;;;7.93;2.38;;;;;;;13.98;62.04;102722.78;5105562;28;20048;-61
2022/10/19 02:40:32;;;;;;;7.40;1.98;;;;;;;13.95;62.28;102715.91;5118302;28;20059;-61
2022/10/19 02:43:05;;;;;;;8.23;2.20;;;;;;;13.94;62.44;102714.25;5117044;28;20059;-61
2022/10/19 02:45:38;;;;;;;8.52;2.47;;;;;;;13.94;62.17;102718.81;5110415;28;20048;-61
2022/10/19 02:48:11;;;;;;;6.90;2.38;;;;;;;13.92;62.04;102708.19;5120307;28;20064;-62
2022/10/19 02:50:43;;;;;;;6.93;2.00;;;;;;;13.91;61.71;102708.41;5103954;28;20055;-61
2022/10/19 02:53:11;;;;;;;12.18;3.22;;;;;;;13.89;62.37;102708.59;5116053;28;20048;-61
2022/10/19 02:55:39;;;;;;;9.57;2.03;;;;;;;13.88;62.03;102709.63;5114822;28;20047;-60
2022/10/19 02:58:11;;;;;;;4.25;2.00;;;;;;;13.87;61.81;102709.81;5108145;28;20048;-60
2022/10/19 03:00:39;;;;;;;8.70;1.80;;;;;;;13.87;61.80;102716.06;5103679;28;20046;-60
2022/10/19 03:03:09;;;;;;;8.18;2.33;;;;;;;13.85;61.80;102706.50;5115605;28;20044;-60
2022/10/19 03:05:37;;;;;;;8.60;2.33;;;;;;;13.84;61.70;102711.09;5110575;28;20062;-60
2022/10/19 03:08:05;;;;;;;6.95;2.08;;;;;;;13.81;61.75;102707.94;5117869;28;20043;-61
2022/10/19 03:10:32;;;;;;;13.40;3.85;;;;;;;13.82;61.78;102715.03;5115461;28;20039;-60
2022/10/19 03:13:00;;;;;;;9.45;2.75;;;;;;;13.80;62.17;102708.97;5110253;28;20055;-61
2022/10/19 03:15:28;;;;;;;7.57;2.88;;;;;;;13.79;62.09;102715.41;5116071;28;20062;-60
2022/10/19 03:17:56;;;;;;;6.15;2.25;;;;;;;13.78;62.27;102725.41;5105914;28;20048;-61
2022/10/19 03:20:25;;;;;;;8.15;2.20;;;;;;;13.77;61.88;102721.03;5103955;28;20059;-60
2022/10/19 03:22:53;;;;;;;9.63;2.65;;;;;;;13.77;61.99;102715.63;5104195;28;20059;-60
2022/10/19 03:25:20;;;;;;;10.90;2.33;;;;;;;13.76;61.79;102722.06;5106470;28;20123;-60
2022/10/19 03:27:48;;;;;;;8.95;2.72;;;;;;;13.76;61.85;102707.69;5112434;28;20052;-61
2022/10/19 03:30:16;;;;;;;8.98;2.50;;;;;;;13.75;61.84;102719.53;5111218;28;20039;-61
2022/10/19 03:32:44;;;;;;;12.50;2.38;;;;;;;13.73;62.25;102710.78;5108733;28;20047;-61
2022/10/19 03:35:11;;;;;;;8.23;2.90;;;;;;;13.72;61.76;102719.94;5108375;28;20048;-60
2022/10/19 03:37:40;;;;;;;9.60;2.83;;;;;;;13.70;61.90;102713.91;5111234;28;20040;-61
2022/10/19 03:40:09;;;;;;;7.03;2.55;;;;;;;13.68;62.16;102706.81;5117054;28;20061;-60
2022/10/19 03:42:37;;;;;;;7.75;3.03;;;;;;;13.68;61.84;102711.38;5119442;28;20078;-60
2022/10/19 03:45:05;;;;;;;7.57;1.90;;;;;;;13.66;61.92;102711.59;5114521;28;20054;-60
2022/10/19 03:47:33;;;;;;;7.50;2.40;;;;;;;13.65;62.18;102709.09;5107550;28;20043;-61
2022/10/19 03:50:01;;;;;;;8.20;2.38;;;;;;;13.63;62.00;102711.16;5116768;28;20070;-61
2022/10/19 03:52:29;;;;;;;10.30;2.50;;;;;;;13.61;61.78;102707.81;5110527;28;20121;-63
2022/10/19 03:54:58;;;;;;;6.72;2.17;;;;;;;13.60;61.88;102709.66;5116870;28;20061;-62
2022/10/19 03:57:25;;;;;;;6.25;2.30;;;;;;;13.57;62.11;102709.22;5113820;28;20048;-61
2022/10/19 03:59:53;;;;;;;5.00;1.85;;;;;;;13.58;61.85;102713.59;5113869;28;20043;-60
2022/10/19 04:02:21;;;;;;;5.15;2.33;;;;;;;13.56;62.25;102715.66;5113572;28;20355;-60
2022/10/19 04:04:48;;;;;;;9.20;3.08;;;;;;;13.55;62.02;102714.81;5110621;28;20073;-61
2022/10/19 04:07:16;;;;;;;9.85;2.45;;;;;;;13.53;61.83;102713.34;5123233;28;20047;-61
2022/10/19 04:09:44;;;;;;;10.65;2.67;;;;;;;13.51;62.21;102718.13;5114045;28;20070;-60
2022/10/19 04:12:13;;;;;;;9.02;2.38;;;;;;;13.49;62.01;102704.81;5109009;28;20462;-60
2022/10/19 04:14:41;;;;;;;9.10;2.85;;;;;;;13.49;61.99;102707.50;5114747;28;20051;-61
2022/10/19 04:17:24;;;;;;;10.90;2.47;;;;;;;13.49;62.19;102704.81;5118355;28;20048;-61
2022/10/19 04:19:52;;;;;;;10.48;2.13;;;;;;;13.48;61.98;102711.25;5110946;28;20465;-60
2022/10/19 04:22:19;;;;;;;7.72;2.38;;;;;;;13.48;62.24;102705.00;5119537;28;20064;-60
2022/10/19 04:24:47;;;;;;;7.47;2.15;;;;;;;13.43;62.16;102705.59;5120277;28;20047;-60
2022/10/19 04:27:16;;;;;;;12.20;2.55;;;;;;;13.44;62.44;102703.72;5114766;28;20496;-60
2022/10/19 04:29:44;;;;;;;10.73;2.53;;;;;;;13.42;61.93;102703.91;5118893;28;20059;-61
2022/10/19 04:32:11;;;;;;;7.75;2.45;;;;;;;13.42;62.05;102701.22;5114031;28;20052;-61
2022/10/19 04:34:39;;;;;;;8.10;2.28;;;;;;;13.41;62.10;102701.41;5106003;28;20044;-61
2022/10/19 04:37:07;;;;;;;6.50;3.25;;;;;;;13.39;62.40;102696.19;5119976;28;20044;-61
2022/10/19 04:39:38;;;;;;;10.85;2.72;;;;;;;13.39;62.31;102695.38;5110432;28;20055;-61
2022/10/19 04:42:06;;;;;;;3.60;1.90;;;;;;;13.38;62.34;102705.34;5116549;28;20046;-61
2022/10/19 04:44:35;;;;;;;9.25;2.28;;;;;;;13.37;62.30;102703.66;5109268;28;20043;-61
2022/10/19 04:47:02;;;;;;;8.85;3.25;;;;;;;13.35;62.58;102693.06;5107595;28;20560;-61
2022/10/19 04:49:30;;;;;;;6.72;2.47;;;;;;;13.35;62.14;102703.84;5118550;28;20139;-61
2022/10/19 04:51:58;;;;;;;8.23;2.13;;;;;;;13.35;62.27;102703.84;5116725;28;20050;-61
2022/10/19 04:54:25;;;;;;;8.07;2.45;;;;;;;13.34;62.13;102713.00;5112491;28;20055;-62
2022/10/19 04:56:53;;;;;;;6.85;2.05;;;;;;;13.32;62.24;102709.66;5117717;28;20047;-61
2022/10/19 04:59:21;;;;;;;8.48;2.33;;;;;;;13.32;62.70;102709.66;5123403;28;20063;-62
2022/10/19 05:01:50;;;;;;;5.72;2.30;;;;;;;13.32;62.12;102698.84;5111115;28;20055;-61
2022/10/19 05:04:17;;;;;;;5.70;2.72;;;;;;;13.31;62.05;102707.13;5105345;28;20058;-61
2022/10/19 05:06:45;;;;;;;6.43;2.30;;;;;;;13.30;62.45;102709.00;5113037;28;20044;-61
2022/10/19 05:09:13;;;;;;;9.05;2.60;;;;;;;13.27;62.42;102712.09;5111449;28;20052;-61
2022/10/19 05:11:41;;;;;;;7.40;2.17;;;;;;;13.27;62.04;102711.25;5116042;28;20039;-61
2022/10/19 05:14:08;;;;;;;10.13;2.45;;;;;;;13.27;62.09;102705.84;5114436;28;20056;-61
2022/10/19 05:16:36;;;;;;;8.10;3.38;;;;;;;13.25;61.92;102703.34;5110497;28;20054;-61
2022/10/19 05:19:05;;;;;;;7.65;2.70;;;;;;;13.25;62.44;102714.16;5105517;28;20056;-62
2022/10/19 05:21:33;;;;;;;10.20;2.78;;;;;;;13.24;62.07;102704.38;5115151;28;20050;-61
2022/10/19 05:24:01;;;;;;;8.07;2.00;;;;;;;13.23;62.05;102700.00;5105514;28;20054;-61
2022/10/19 05:26:29;;;;;;;10.60;3.50;;;;;;;13.20;62.23;102695.00;5111581;28;20071;-62
2022/10/19 05:29:00;;;;;;;9.35;2.80;;;;;;;13.18;62.19;102690.81;5108125;28;20064;-63
2022/10/19 05:31:30;;;;;;;4.68;2.60;;;;;;;13.15;61.84;102689.31;5108341;28;20044;-63
2022/10/19 05:33:59;;;;;;;4.95;2.30;;;;;;;13.16;62.05;102680.22;5106545;28;20504;-61
2022/10/19 05:36:33;;;;;;;8.52;2.35;;;;;;;13.15;61.78;102673.13;5116734;28;20434;-61
2022/10/19 05:39:03;;;;;;;8.10;2.72;;;;;;;13.15;61.86;102678.50;5105202;28;20048;-63
2022/10/19 05:41:31;;;;;;;8.77;2.25;;;;;;;13.15;62.18;102686.63;5106861;28;20050;-61
2022/10/19 05:44:00;;;;;;;6.43;2.03;;;;;;;13.12;62.15;102676.19;5105138;28;20048;-63
2022/10/19 05:46:29;;;;;;;7.15;2.30;;;;;;;13.13;61.97;102679.75;4756805;28;10000042;-62
2022/10/19 05:48:57;;;;;;;11.48;4.13;;;;;;;13.13;61.78;102677.03;5105381;28;20052;-63
2022/10/19 05:51:28;;;;;;;5.30;2.17;;;;;;;13.07;62.15;102675.94;5108658;28;20436;-63
2022/10/19 05:53:56;;;;;;;12.32;2.47;;;;;;;13.09;62.26;102681.16;5107450;28;20147;-62
2022/10/19 05:56:26;;;;;;;9.00;2.15;;;;;;;13.06;61.93;102662.66;5112382;28;20040;-63
2022/10/19 05:58:55;;;;;;;11.20;2.63;;;;;;;13.07;61.99;102670.56;5101957;28;20044;-61
2022/10/19 06:01:23;;;;;;;4.88;2.28;;;;;;;12.98;61.78;102655.53;5106209;28;20044;-61
2022/10/19 06:03:52;;;;;;;6.95;2.25;;;;;;;13.04;61.96;102668.25;5109190;28;20058;-60
2022/10/19 06:06:21;;;;;;;7.75;2.05;;;;;;;13.04;61.89;102668.25;5107364;28;20067;-60
2022/10/19 06:08:52;;;;;;;8.93;2.38;;;;;;;13.04;61.90;102663.69;5107250;28;20047;-60
2022/10/19 06:11:21;;;;;;;9.20;3.05;;;;;;;13.03;62.06;102667.41;5101932;28;20052;-59
2022/10/19 06:13:50;;;;;;;7.25;2.70;;;;;;;13.02;62.23;102667.59;5101140;28;20062;-61
2022/10/19 06:16:19;;;;;;;8.48;2.30;;;;;;;13.01;62.15;102663.22;5101269;28;20074;-59
2022/10/19 06:18:47;;;;;;;8.20;2.55;;;;;;;12.96;61.76;102658.41;5104196;28;20044;-59
2022/10/19 06:21:16;;;;;;;8.20;2.70;;;;;;;12.94;62.14;102654.22;5103866;28;20048;-60
2022/10/19 06:23:44;;;;;;;10.60;2.65;;;;;;;12.94;62.40;102655.06;5104663;28;20048;-60
2022/10/19 06:26:14;;;;;;;8.55;3.05;;;;;;;12.95;61.91;102661.31;5105873;28;20052;-59
2022/10/19 06:28:43;;;;;;;9.30;2.42;;;;;;;12.95;62.09;102662.13;5105013;28;20048;-60
2022/10/19 06:31:12;;;;;;;9.68;2.45;;;;;;;12.95;61.87;102656.75;5103874;28;20064;-60
2022/10/19 06:33:41;;;;;;;7.43;2.17;;;;;;;12.94;61.83;102663.16;5104986;28;20048;-63
2022/10/19 06:36:12;;;;;;;6.35;2.13;;;;;;;12.92;61.86;102662.53;4759901;28;10000560;-60
2022/10/19 06:38:40;;;;;;;5.20;2.05;;;;;;;12.91;62.29;102660.84;5101485;28;20511;-60
2022/10/19 06:41:09;;;;;;;8.43;3.05;;;;;;;12.92;61.97;102676.00;5109778;28;20111;-60
2022/10/19 06:43:39;;;;;;;5.03;2.45;;;;;;;12.93;62.23;102675.00;5101434;28;20056;-60
2022/10/19 06:46:08;;;;;;;5.70;2.53;;;;;;;12.89;61.95;102664.78;5106735;28;20054;-60
2022/10/19 06:48:35;;;;;;;9.13;2.75;;;;;;;12.91;62.21;102665.41;5104743;28;20052;-60
2022/10/19 06:51:06;;;;;;;8.95;2.38;;;;;;;12.90;62.32;102669.97;5101160;28;20058;-61
2022/10/19 06:53:34;;;;;;;7.53;2.97;;;;;;;12.90;62.51;102671.84;5101678;28;20060;-60
2022/10/19 06:56:04;;;;;;;4.88;1.92;;;;;;;12.88;62.43;102669.34;5100599;28;20111;-60
2022/10/19 06:58:35;;;;;;;5.10;2.00;;;;;;;12.89;62.32;102672.88;5114441;28;20058;-61
2022/10/19 07:01:07;;;;;;;6.78;2.28;;;;;;;12.88;62.22;102674.72;5115567;28;20040;-61
2022/10/19 07:03:35;;;;;;;6.97;2.60;;;;;;;12.86;62.34;102665.16;5114512;28;20120;-60
2022/10/19 07:06:05;;;;;;;6.93;2.50;;;;;;;12.85;62.46;102667.03;5106998;28;20065;-60
2022/10/19 07:08:33;;;;;;;6.88;2.15;;;;;;;12.86;62.50;102666.00;5106021;28;20718;-60
2022/10/19 07:11:03;;;;;;;9.75;2.58;;;;;;;12.83;62.24;102669.06;5103683;28;20493;-60
2022/10/19 07:13:31;;;;;;;11.05;2.53;;;;;;;12.85;62.74;102671.59;5105369;28;20052;-60
2022/10/19 07:16:01;;;;;;;11.63;2.55;;;;;;;12.82;62.43;102672.81;5104157;28;20056;-62
2022/10/19 07:18:30;;;;;;;5.93;2.13;;;;;;;12.85;62.55;102668.88;5109007;28;20131;-60
2022/10/19 07:20:59;;;;;;;7.57;2.20;;;;;;;12.87;62.56;102677.63;5112059;28;20115;-60
2022/10/19 07:23:30;;;;;;;8.35;2.03;;;;;;;12.85;62.34;102676.97;5115858;28;20162;-62
2022/10/19 07:26:00;;;;;;;6.45;2.25;;;;;;;12.83;62.45;102679.03;5108852;28;20068;-60
2022/10/19 07:28:29;;;;;;;4.65;1.90;;;;;;;12.84;62.53;102675.31;5104133;28;20571;-61
2022/10/19 07:30:57;;;;;;;6.32;2.60;;;;;;;12.83;62.63;102669.06;5103560;28;20060;-60
2022/10/19 07:33:25;;;;;;;6.32;2.03;;;;;;;12.82;62.93;102671.97;5107990;28;20052;-60
2022/10/19 07:36:00;;;;;;;9.50;2.70;;;;;;;12.83;62.45;102669.06;5104431;28;20052;-60
2022/10/19 07:38:28;;;;;;;6.13;2.63;;;;;;;12.82;62.96;102669.25;5108871;28;20054;-61
2022/10/19 07:41:01;;;;;;;7.82;3.13;;;;;;;12.82;63.01;102669.25;5105321;28;20048;-62
2022/10/19 07:43:28;;;;;;;8.32;3.05;;;;;;;12.80;62.74;102661.38;5105452;28;20112;-61
2022/10/19 07:46:01;;;;;;;10.00;3.20;;;;;;;12.82;62.86;102662.00;5106780;28;20056;-63
2022/10/19 07:48:29;;;;;;;7.50;2.38;;;;;;;12.82;62.58;102655.78;5114613;28;20043;-64
2022/10/19 07:50:57;;;;;;;7.10;2.53;;;;;;;12.83;62.83;102660.97;5104631;28;20044;-63
2022/10/19 07:53:26;;;;;;;5.53;1.95;;;;;;;12.83;63.05;102660.16;5104901;28;20056;-68
2022/10/19 07:55:54;;;;;;;7.95;2.55;;;;;;;12.83;62.96;102655.59;5105778;28;20047;-61
2022/10/19 07:58:21;;;;;;;7.38;2.35;;;;;;;12.83;62.83;102655.59;5120049;28;20055;-63
2022/10/19 08:00:49;;;;;;;8.57;2.90;;;;;;;12.84;63.03;102654.56;5121368;28;20063;-62
2022/10/19 08:03:17;;;;;;;6.25;3.05;;;;;;;12.84;63.03;102648.31;5121473;28;20054;-60
2022/10/19 08:06:06;;;;;;;6.60;2.22;;;;;;;12.80;62.71;102638.94;5103239;28;20100;-60
2022/10/19 08:08:36;;;;;;;8.25;2.85;;;;;;;12.85;63.07;102641.91;5106112;28;20055;-61
2022/10/19 08:11:08;;;;;;;7.88;2.42;;;;;;;12.85;62.84;102658.94;5108396;28;20044;-61
2022/10/19 08:13:35;;;;;;;8.23;2.88;;;;;;;12.86;63.03;102652.50;5116137;28;20039;-62
2022/10/19 08:16:04;;;;;;;7.85;2.60;;;;;;;12.85;63.02;102648.13;5115969;28;20592;-63
2022/10/19 08:18:32;;;;;;;8.27;3.22;;;;;;;12.85;63.15;102644.59;5106415;28;20048;-61
2022/10/19 08:21:02;;;;;;;5.20;2.25;;;;;;;12.84;63.17;102630.28;5102169;28;20139;-61
2022/10/19 08:23:29;;;;;;;6.22;2.75;;;;;;;12.85;63.55;102623.84;5113495;28;20078;-61
2022/10/19 08:25:59;;;;;;;7.85;2.30;;;;;;;12.83;63.34;102625.06;5102373;28;20135;-61
2022/10/19 08:28:26;;;;;;;9.20;2.58;;;;;;;12.84;63.49;102621.34;5114902;28;20048;-62
2022/10/19 08:30:57;;;;;;;16.65;3.75;;;;;;;12.83;63.78;102609.72;5106749;28;20118;-61
2022/10/19 08:33:25;;;;;;;10.15;2.55;;;;;;;12.83;64.03;102620.50;5109626;28;20058;-61
2022/10/19 08:35:53;;;;;;;8.27;2.85;;;;;;;12.83;64.03;102608.88;5111503;28;20526;-61
2022/10/19 08:38:21;;;;;;;10.23;2.85;;;;;;;12.84;63.89;102619.47;5108101;28;20052;-62
2022/10/19 08:40:49;;;;;;;6.35;2.40;;;;;;;12.87;63.68;102610.16;5103519;28;20048;-62
2022/10/19 08:43:27;;;;;;;6.50;2.88;;;;;;;12.88;63.56;102611.84;5105784;28;20048;-61
2022/10/19 08:46:02;;;;;;;6.80;2.10;;;;;;;12.88;64.30;102609.97;5102902;28;20066;-61
2022/10/19 08:48:35;;;;;;;9.38;3.22;;;;;;;12.91;63.84;102614.97;5109329;28;20047;-61
2022/10/19 08:51:06;;;;;;;7.45;2.55;;;;;;;12.91;64.19;102612.28;5102961;28;20078;-61
2022/10/19 08:53:40;;;;;;;7.45;2.05;;;;;;;12.91;63.85;102606.88;5103062;28;20109;-62
2022/10/19 08:56:17;;;;;;;8.00;2.67;;;;;;;12.91;63.84;102614.97;5102961;28;20047;-61
2022/10/19 08:59:14;;;;;;;9.05;3.17;;;;;;;12.89;64.00;102608.09;5112393;28;20063;-62
2022/10/19 09:01:51;;;;;;;11.15;3.15;;;;;;;12.91;64.37;102606.88;5105437;28;20134;-61
2022/10/19 09:04:23;;;;;;;5.43;2.67;;;;;;;12.92;64.17;102600.44;5108347;28;20062;-61
2022/10/19 09:07:21;;;;;;;7.63;3.10;;;;;;;12.91;64.56;102593.38;5114109;28;20055;-62
2022/10/19 09:09:50;;;;;;;;;;;;;;;12.94;64.74;102600.25;5104326;28;20070;-61
2022/10/19 09:12:31;;;;;;;13.63;2.85;;;;;;;12.95;64.64;102589.28;5111892;28;19924;-61
2022/10/19 09:15:03;;;;;;;6.15;2.35;;;;;;;12.97;64.44;102602.56;5103116;28;20083;-60
2022/10/19 09:17:32;;;;;;;7.70;2.80;;;;;;;12.99;64.17;102609.44;5102551;28;20044;-61
2022/10/19 09:20:14;;;;;;;8.05;2.63;;;;;;;13.00;64.29;102619.22;5106339;28;20044;-61
2022/10/19 09:22:43;;;;;;;7.28;1.77;;;;;;;13.09;65.15;102614.50;5101303;28;20052;-60
2022/10/19 09:25:14;;;;;;;8.45;3.22;;;;;;;13.06;64.20;102605.97;5101117;28;20048;-61
2022/10/19 09:27:45;;;;;;;12.93;2.63;;;;;;;13.07;64.67;102610.34;5102704;28;20048;-60
2022/10/19 09:30:19;;;;;;;11.48;2.90;;;;;;;13.03;64.56;102608.03;5116592;28;20052;-61
2022/10/19 09:32:49;;;;;;;11.10;2.45;;;;;;;13.06;64.73;102609.50;5115307;28;20055;-62
2022/10/19 09:35:26;;;;;;;10.75;2.58;;;;;;;13.06;64.79;102593.31;5104609;28;20050;-61
2022/10/19 09:37:55;;;;;;;8.88;2.05;;;;;;;13.08;64.95;102595.81;5101482;28;20056;-62
2022/10/19 09:40:26;;;;;;;6.05;2.08;;;;;;;13.08;64.71;102604.75;5115920;28;20044;-61
2022/10/19 09:42:57;;;;;;;11.95;2.13;;;;;;;13.07;65.17;102596.84;5103903;28;20040;-61
2022/10/19 09:45:40;;;;;;;7.85;2.30;;;;;;;13.06;65.30;102595.16;5107751;28;20059;-61
2022/10/19 09:48:18;;;;;;;7.57;2.28;;;;;;;13.00;65.27;102581.41;5100641;28;20115;-62
2022/10/19 09:50:51;;;;;;;9.25;2.20;;;;;;;13.09;64.81;102590.22;5104362;28;20061;-61
2022/10/19 09:53:21;;;;;;;11.40;2.72;;;;;;;13.10;64.81;102578.38;5107261;28;20111;-61
2022/10/19 09:55:57;;;;;;;10.23;2.35;;;;;;;13.11;65.39;102585.44;5101467;28;20112;-62
2022/10/19 09:58:26;;;;;;;7.22;2.00;;;;;;;13.14;65.29;102576.13;5103483;28;20135;-61
2022/10/19 10:01:02;;;;;;;13.23;2.97;;;;;;;13.14;64.89;102571.56;5102405;28;20086;-62
2022/10/19 10:03:34;;;;;;;7.85;3.17;;;;;;;13.17;65.10;102570.38;5101131;28;20036;-61
2022/10/19 10:06:05;;;;;;;8.73;2.78;;;;;;;13.20;64.86;102567.28;5109801;28;20067;-61
2022/10/19 10:08:36;;;;;;;8.02;2.47;;;;;;;13.21;65.26;102572.47;5101725;28;20638;-61
2022/10/19 10:11:07;;;;;;;6.38;2.85;;;;;;;13.25;65.36;102584.56;5105564;28;20138;-62
2022/10/19 10:13:38;;;;;;;7.68;2.78;;;;;;;13.26;65.21;102578.13;5102393;28;20644;-63
2022/10/19 10:16:10;;;;;;;7.50;2.70;;;;;;;13.28;65.02;102583.31;5112476;28;20047;-62
2022/10/19 10:18:50;;;;;;;8.82;2.33;;;;;;;13.29;64.79;102571.50;5102304;28;20052;-63
2022/10/19 10:21:22;;;;;;;8.50;2.30;;;;;;;13.28;64.76;102561.72;5104801;28;20093;-62
2022/10/19 10:24:01;;;;;;;12.52;2.80;;;;;;;13.28;65.22;102559.03;5100156;28;20055;-63
2022/10/19 10:26:29;;;;;;;;;;;;;;;13.32;64.98;102563.00;5103278;28;20799;-62
2022/10/19 10:28:57;;;;;;;7.35;2.85;;;;;;;13.34;65.05;102567.16;5103823;28;19927;-61
2022/10/19 10:31:30;;;;;;;9.90;2.28;;;;;;;13.39;64.93;102563.88;5100152;28;20140;-62
2022/10/19 10:34:01;;;;;;;7.05;1.95;;;;;;;13.43;64.92;102558.91;5105211;28;20047;-62
2022/10/19 10:36:53;;;;;;;6.20;2.17;;;;;;;13.44;65.23;102556.00;5116847;28;20055;-62
2022/10/19 10:39:23;;;;;;;11.27;2.60;;;;;;;13.45;64.86;102552.28;5110224;28;20047;-62
2022/10/19 10:41:51;;;;;;;7.10;2.58;;;;;;;13.47;64.91;102539.41;5108572;28;20052;-62
2022/10/19 10:44:23;;;;;;;8.10;2.60;;;;;;;13.48;65.22;102538.38;5111261;28;20051;-62
2022/10/19 10:46:55;;;;;;;9.70;2.30;;;;;;;13.50;65.09;102535.47;5108723;28;20051;-61
2022/10/19 10:49:25;;;;;;;7.78;2.65;;;;;;;13.55;65.24;102541.09;5103780;28;20044;-62
2022/10/19 10:51:55;;;;;;;11.60;2.33;;;;;;;13.57;65.14;102537.16;5110029;28;20450;-62
2022/10/19 10:54:25;;;;;;;9.20;2.28;;;;;;;13.59;65.01;102539.66;5105451;28;20063;-62
2022/10/19 10:57:12;;;;;;;6.25;1.80;;;;;;;13.62;65.38;102536.56;5109714;28;20040;-62
2022/10/19 10:59:50;;;;;;;8.50;3.17;;;;;;;13.63;65.09;102538.22;5109622;28;20085;-62
2022/10/19 11:02:37;;;;;;;11.38;3.42;;;;;;;13.65;64.82;102537.00;5109992;28;20072;-62
2022/10/19 11:05:11;;;;;;;7.45;2.67;;;;;;;13.67;65.02;102532.22;5108106;28;20036;-61
2022/10/19 11:07:43;;;;;;;7.07;2.08;;;;;;;13.69;64.86;102534.72;5112148;28;20052;-61
2022/10/19 11:10:20;;;;;;;7.07;2.45;;;;;;;13.71;64.83;102515.63;5111045;28;20075;-61
2022/10/19 11:12:55;;;;;;;7.63;2.38;;;;;;;13.67;64.49;102507.06;5104623;28;20619;-62
2022/10/19 11:15:27;;;;;;;6.53;2.10;;;;;;;13.72;64.76;102511.88;5107351;28;20040;-61
2022/10/19 11:18:11;;;;;;;7.05;2.50;;;;;;;13.74;64.60;102512.50;5108414;28;20066;-60
2022/10/19 11:20:45;;;;;;;7.15;2.65;;;;;;;13.76;64.47;102496.94;5105683;28;20059;-61
2022/10/19 11:23:18;;;;;;;8.35;2.40;;;;;;;13.79;64.58;102493.81;5117351;28;20152;-61
2022/10/19 11:26:08;;;;;;;6.65;2.28;;;;;;;13.86;64.90;102487.41;5113142;28;20062;-62
2022/10/19 11:28:52;;;;;;;15.02;2.72;;;;;;;13.88;64.70;102477.19;5104360;28;20056;-61
2022/10/19 11:31:25;;;;;;;6.40;2.53;;;;;;;13.90;64.89;102461.59;5111842;28;20140;-61
2022/10/19 11:34:02;;;;;;;6.68;2.80;;;;;;;13.92;64.45;102466.78;5107072;28;20051;-64
2022/10/19 11:36:42;;;;;;;10.68;3.03;;;;;;;13.92;64.88;102450.59;5112396;28;20056;-61
2022/10/19 11:39:27;;;;;;;9.65;3.33;;;;;;;13.92;64.34;102448.72;5115644;28;20050;-61
2022/10/19 11:42:06;;;;;;;7.13;2.63;;;;;;;13.93;64.45;102439.56;5110826;28;20338;-61
2022/10/19 11:44:46;;;;;;;17.60;3.28;;;;;;;13.93;64.13;102431.47;5111249;28;20040;-62